Time;durP1;ratioP1;P1;durP2;ratioP2;P2;SDS_P1;SDS_P2;PMS_P1;PMS_P2;Temp;Humidity;BMP_temperature;BMP_pressure;BME280_temperature;BME280_humidity;BME280_pressure;Samples;Min_cycle;Max_cycle;Signal;HPM_P1;HPM_P2
2023/08/28 00:00:20;;;;;;;1.50;1.10;;;;;;;17.81;87.73;98190.35;226864;1267;23467;-72
2023/08/28 00:05:23;;;;;;;1.30;1.10;;;;;;;17.81;87.95;98203.29;226868;1266;22523;-71
2023/08/28 00:10:25;;;;;;;3.20;1.70;;;;;;;17.74;88.00;98235.77;226644;1260;22540;-74
2023/08/28 00:15:27;;;;;;;2.40;2.00;;;;;;;17.57;88.19;98239.35;226699;1264;22702;-76
2023/08/28 00:20:29;;;;;;;2.30;2.10;;;;;;;17.37;88.67;98245.36;226781;1273;24440;-76
2023/08/28 00:25:31;;;;;;;2.70;2.50;;;;;;;17.23;88.95;98246.70;226930;1272;22530;-76
2023/08/28 00:30:33;;;;;;;3.20;3.00;;;;;;;17.15;89.15;98234.98;226750;1267;22530;-77
2023/08/28 00:35:35;;;;;;;5.00;3.40;;;;;;;17.09;89.52;98237.49;226824;1273;22550;-77
2023/08/28 00:40:41;;;;;;;3.60;3.20;;;;;;;17.05;89.83;98232.86;226869;1272;22534;-77
2023/08/28 00:45:43;;;;;;;3.40;2.90;;;;;;;17.03;89.98;98237.25;226935;1269;25048;-77
2023/08/28 00:50:47;;;;;;;4.80;3.70;;;;;;;16.98;90.13;98255.80;226864;1272;24646;-77
2023/08/28 00:55:49;;;;;;;4.00;3.30;;;;;;;16.96;90.23;98266.92;226850;1257;22544;-77
2023/08/28 01:00:51;;;;;;;4.90;4.40;;;;;;;16.95;90.31;98258.73;226716;1272;22555;-78
2023/08/28 01:06:30;;;;;;;5.00;3.50;;;;;;;16.95;90.52;98252.38;226725;1272;22700;-78
2023/08/28 01:11:36;;;;;;;3.90;3.50;;;;;;;16.95;90.54;98250.77;226549;1273;22550;-77
2023/08/28 01:16:42;;;;;;;4.60;3.70;;;;;;;16.94;90.44;98258.08;226747;1269;22741;-77
2023/08/28 01:21:47;;;;;;;4.80;3.80;;;;;;;16.95;90.55;98247.40;226832;1270;22554;-77
2023/08/28 01:26:49;;;;;;;3.90;3.50;;;;;;;16.96;90.77;98253.95;226850;1250;22545;-77
2023/08/28 01:31:51;;;;;;;4.40;3.50;;;;;;;16.97;90.75;98261.77;226845;1270;25100;-78
2023/08/28 01:36:57;;;;;;;3.70;3.40;;;;;;;16.99;90.83;98259.50;226570;1267;161858;-78
2023/08/28 01:41:59;;;;;;;3.60;3.30;;;;;;;17.01;90.68;98264.27;226794;1254;23292;-77
2023/08/28 01:47:01;;;;;;;4.30;3.60;;;;;;;17.01;90.64;98265.83;226838;1258;22534;-78
2023/08/28 01:52:03;;;;;;;4.10;3.50;;;;;;;17.01;90.68;98268.02;226860;1269;22517;-78
2023/08/28 01:57:05;;;;;;;3.60;3.30;;;;;;;17.03;90.80;98270.72;226870;1272;22612;-78
2023/08/28 02:02:07;;;;;;;4.40;4.00;;;;;;;17.03;90.79;98270.58;226719;1270;22511;-78
2023/08/28 02:07:08;;;;;;;4.00;3.70;;;;;;;17.05;90.70;98276.59;226733;1270;22533;-78
2023/08/28 02:12:10;;;;;;;4.30;3.50;;;;;;;17.05;90.71;98276.86;226898;1266;22574;-78
2023/08/28 02:17:13;;;;;;;4.30;3.90;;;;;;;17.07;90.79;98291.39;226807;1269;22518;-78
2023/08/28 02:22:15;;;;;;;4.50;3.80;;;;;;;17.09;90.77;98288.81;226823;1267;22557;-78
2023/08/28 02:27:17;;;;;;;4.50;4.10;;;;;;;17.09;90.69;98280.37;226757;1272;22526;-77
2023/08/28 02:32:19;;;;;;;4.90;4.30;;;;;;;17.09;90.65;98286.98;226835;1272;22569;-78
2023/08/28 02:37:21;;;;;;;4.90;4.40;;;;;;;17.08;90.75;98265.35;226851;1263;22548;-77
2023/08/28 02:42:24;;;;;;;4.80;4.40;;;;;;;17.10;90.74;98262.55;226715;1272;22575;-78
2023/08/28 02:47:26;;;;;;;4.90;4.40;;;;;;;17.12;90.66;98269.12;226786;1266;22547;-77
2023/08/28 02:52:28;;;;;;;5.20;4.60;;;;;;;17.15;90.82;98267.66;226830;1272;22606;-78
2023/08/28 02:57:30;;;;;;;5.70;5.20;;;;;;;17.18;90.92;98261.48;226821;1270;26017;-78
2023/08/28 03:02:32;;;;;;;5.00;4.60;;;;;;;17.18;90.75;98264.88;226821;1272;22676;-77
2023/08/28 03:07:34;;;;;;;5.30;4.30;;;;;;;17.20;90.71;98273.67;226824;1251;22550;-77
2023/08/28 03:12:36;;;;;;;5.50;5.00;;;;;;;17.19;90.64;98278.85;226745;1269;23192;-78
2023/08/28 03:17:38;;;;;;;5.40;4.90;;;;;;;17.17;90.64;98291.68;226828;1260;22662;-77
2023/08/28 03:22:40;;;;;;;5.60;5.00;;;;;;;17.18;90.69;98300.55;226866;1272;22579;-77
2023/08/28 03:27:42;;;;;;;5.90;5.30;;;;;;;17.19;90.76;98311.31;226855;1266;22530;-77
2023/08/28 03:32:44;;;;;;;5.40;4.90;;;;;;;17.19;90.78;98311.15;226791;1266;22599;-77
2023/08/28 03:37:46;;;;;;;7.60;5.40;;;;;;;17.20;90.70;98303.00;226815;1269;22518;-77
2023/08/28 03:42:48;;;;;;;5.40;4.90;;;;;;;17.22;90.73;98306.42;226801;1272;22529;-78
2023/08/28 03:47:51;;;;;;;4.80;4.20;;;;;;;17.21;90.80;98320.63;226812;1267;22531;-77
2023/08/28 03:52:52;;;;;;;4.30;3.90;;;;;;;17.22;90.87;98320.63;226802;1269;23201;-78
2023/08/28 03:57:55;;;;;;;4.10;3.60;;;;;;;17.22;90.78;98332.00;226873;1272;22605;-77
2023/08/28 04:02:58;;;;;;;4.40;4.00;;;;;;;17.22;90.96;98337.71;226648;1269;22539;-77
2023/08/28 04:08:00;;;;;;;4.60;4.10;;;;;;;17.19;90.98;98342.86;226736;1269;22534;-77
2023/08/28 04:13:02;;;;;;;5.20;4.80;;;;;;;17.17;90.99;98359.00;226681;1269;22901;-77
2023/08/28 04:18:05;;;;;;;5.50;4.90;;;;;;;17.15;90.91;98373.86;226781;1273;22551;-77
2023/08/28 04:23:07;;;;;;;6.10;5.20;;;;;;;17.15;90.97;98379.20;226722;1251;22527;-77
2023/08/28 04:28:09;;;;;;;6.50;5.10;;;;;;;17.15;91.02;98375.10;226778;1272;22535;-77
2023/08/28 04:33:11;;;;;;;6.70;5.70;;;;;;;17.15;90.83;98368.16;226801;1271;22537;-77
2023/08/28 04:38:14;;;;;;;7.90;5.90;;;;;;;17.15;90.71;98357.64;226786;1253;25214;-77
2023/08/28 04:43:16;;;;;;;7.20;5.90;;;;;;;17.16;90.60;98348.80;226715;1272;24291;-76
2023/08/28 04:48:18;;;;;;;6.50;5.70;;;;;;;17.17;90.68;98332.27;226729;1260;22664;-76
2023/08/28 04:53:20;;;;;;;6.20;5.60;;;;;;;17.21;90.86;98325.80;226731;1272;22542;-76
2023/08/28 04:58:24;;;;;;;6.80;6.20;;;;;;;17.23;90.83;98321.34;226657;1269;22656;-76
2023/08/28 05:03:30;;;;;;;7.10;6.40;;;;;;;17.24;90.72;98314.73;226832;1272;22710;-75
2023/08/28 05:08:32;;;;;;;6.70;6.10;;;;;;;17.26;90.68;98312.52;226705;1271;22560;-76
2023/08/28 05:13:34;;;;;;;8.00;6.20;;;;;;;17.28;90.70;98311.98;226780;1272;23003;-76
2023/08/28 05:18:37;;;;;;;7.90;6.80;;;;;;;17.30;90.70;98307.96;226726;1272;22533;-76
2023/08/28 05:23:41;;;;;;;7.10;6.40;;;;;;;17.31;90.69;98306.63;226770;1270;24546;-76
2023/08/28 05:28:45;;;;;;;8.70;6.80;;;;;;;17.33;90.63;98304.25;226627;1267;22648;-77
2023/08/28 05:33:47;;;;;;;8.00;6.90;;;;;;;17.36;90.66;98308.42;226698;1272;22529;-77
2023/08/28 05:38:49;;;;;;;8.50;6.90;;;;;;;17.43;90.81;98304.36;226590;1273;22549;-77
2023/08/28 05:43:51;;;;;;;8.30;7.50;;;;;;;17.49;90.68;98300.93;226592;1269;22549;-76
2023/08/28 05:48:53;;;;;;;9.80;8.50;;;;;;;17.52;90.42;98307.91;226562;1269;22984;-75
2023/08/28 05:53:55;;;;;;;10.20;8.20;;;;;;;17.55;90.37;98298.02;226587;1254;23020;-75
2023/08/28 05:58:58;;;;;;;8.80;7.90;;;;;;;17.65;90.36;98290.35;226458;1251;22533;-76
2023/08/28 06:04:00;;;;;;;8.70;7.80;;;;;;;17.80;90.11;98312.33;226256;1260;22564;-76
2023/08/28 06:09:06;;;;;;;8.60;7.50;;;;;;;17.89;89.86;98315.12;226301;1251;22681;-77
2023/08/28 06:14:08;;;;;;;8.10;7.30;;;;;;;17.97;89.46;98310.69;226354;1253;22550;-75
2023/08/28 06:19:10;;;;;;;7.00;6.30;;;;;;;17.98;89.02;98318.02;226297;1252;22533;-75
2023/08/28 06:24:12;;;;;;;7.00;6.30;;;;;;;17.92;88.40;98301.11;226320;1263;22538;-75
2023/08/28 06:29:14;;;;;;;7.50;5.90;;;;;;;17.82;88.08;98310.16;226344;1253;22530;-75
2023/08/28 06:34:19;;;;;;;8.10;5.80;;;;;;;17.70;87.68;98311.80;226257;1251;22616;-76
2023/08/28 06:39:21;;;;;;;8.40;6.60;;;;;;;17.55;87.54;98319.08;226344;1250;22534;-76
2023/08/28 06:44:23;;;;;;;6.60;6.00;;;;;;;17.46;87.64;98324.50;226411;1267;22906;-76
2023/08/28 06:49:25;;;;;;;7.80;7.00;;;;;;;17.40;87.72;98324.51;226341;1253;22554;-76
2023/08/28 06:54:27;;;;;;;7.80;7.00;;;;;;;17.46;88.28;98317.55;226367;1266;22585;-78
2023/08/28 06:59:49;;;;;;;7.60;6.80;;;;;;;17.61;88.46;98300.91;226229;1263;25343;-76
2023/08/28 07:04:51;;;;;;;8.80;7.50;;;;;;;17.74;88.27;98295.66;226225;1251;22538;-75
2023/08/28 07:09:53;;;;;;;8.70;7.80;;;;;;;17.83;88.18;98292.90;226346;1266;25249;-75
2023/08/28 07:15:10;;;;;;;9.90;8.00;;;;;;;17.88;88.11;98287.38;226450;1254;22542;-75
2023/08/28 07:20:12;;;;;;;7.70;7.00;;;;;;;17.97;88.09;98271.39;226401;1253;22540;-76
2023/08/28 07:25:21;;;;;;;8.10;7.40;;;;;;;18.07;87.61;98267.83;226451;1270;22627;-75
2023/08/28 07:30:23;;;;;;;8.90;8.10;;;;;;;18.20;87.38;98255.73;226436;1255;22527;-76
2023/08/28 07:35:29;;;;;;;10.00;9.00;;;;;;;18.36;87.25;98249.17;226414;1250;22546;-74
2023/08/28 07:40:32;;;;;;;8.50;7.50;;;;;;;18.57;87.04;98258.29;226365;1253;22572;-74
2023/08/28 07:45:34;;;;;;;7.50;6.80;;;;;;;18.80;86.72;98273.41;226388;1269;22575;-76
2023/08/28 07:50:37;;;;;;;6.80;6.20;;;;;;;19.04;86.27;98286.98;226320;1272;22561;-76
2023/08/28 07:55:40;;;;;;;7.10;6.50;;;;;;;19.25;85.66;98286.98;226429;1267;22548;-76
2023/08/28 08:00:43;;;;;;;6.80;6.20;;;;;;;19.48;85.48;98279.35;226454;1270;22527;-76
2023/08/28 08:05:45;;;;;;;7.60;6.80;;;;;;;19.65;84.95;98286.66;226544;1269;22606;-76
2023/08/28 08:10:47;;;;;;;7.30;6.60;;;;;;;19.80;84.83;98282.79;226560;1254;22535;-77
2023/08/28 08:15:50;;;;;;;7.10;6.20;;;;;;;19.97;84.24;98287.55;226524;1272;24283;-77
2023/08/28 08:20:52;;;;;;;6.30;5.80;;;;;;;20.01;83.64;98298.88;226478;1263;22550;-76
2023/08/28 08:25:54;;;;;;;6.30;5.70;;;;;;;19.96;83.22;98296.06;226571;1251;25258;-77
2023/08/28 08:30:56;;;;;;;6.20;5.50;;;;;;;19.98;83.28;98292.20;226481;1253;22538;-76
2023/08/28 08:35:59;;;;;;;6.10;5.50;;;;;;;20.01;82.97;98298.52;226241;1262;22593;-76
2023/08/28 08:41:01;;;;;;;6.80;6.30;;;;;;;19.97;82.75;98305.52;226361;1256;22527;-75
2023/08/28 08:46:07;;;;;;;5.60;5.20;;;;;;;19.91;82.50;98312.65;226367;1253;25291;-75
2023/08/28 08:51:13;;;;;;;8.00;6.40;;;;;;;19.93;82.70;98301.83;226324;1272;25269;-76
2023/08/28 08:56:18;;;;;;;6.40;5.50;;;;;;;20.05;82.85;98277.28;226383;1268;22885;-77
2023/08/28 09:01:20;;;;;;;6.30;5.80;;;;;;;20.25;82.37;98272.20;226548;1256;22532;-77
2023/08/28 09:06:22;;;;;;;5.60;5.10;;;;;;;20.34;81.82;98267.41;226552;1270;22620;-77
2023/08/28 09:11:24;;;;;;;8.20;6.20;;;;;;;20.40;81.36;98260.71;226622;1272;22538;-77
2023/08/28 09:16:26;;;;;;;6.10;4.90;;;;;;;20.46;81.02;98255.20;226567;1272;22578;-76
2023/08/28 09:21:34;;;;;;;5.80;5.30;;;;;;;20.52;81.00;98242.27;226667;1251;22542;-77
2023/08/28 09:26:49;;;;;;;5.90;5.40;;;;;;;20.63;80.60;98233.43;226515;1272;22574;-76
2023/08/28 09:32:03;;;;;;;5.60;5.00;;;;;;;20.82;80.27;98249.61;226811;1257;23095;-78
2023/08/28 09:37:13;;;;;;;6.30;5.80;;;;;;;20.96;79.86;98256.40;226499;1251;22545;-76
2023/08/28 09:42:15;;;;;;;6.00;5.30;;;;;;;21.07;79.59;98251.94;226507;1267;23431;-75
2023/08/28 09:47:22;;;;;;;5.90;5.40;;;;;;;21.15;79.36;98254.79;226542;1273;24216;-78
2023/08/28 09:52:25;;;;;;;5.80;5.30;;;;;;;21.29;79.02;98239.88;226644;1266;22540;-80
2023/08/28 09:57:33;;;;;;;4.80;4.40;;;;;;;21.45;78.24;98235.39;226625;1272;22537;-75
2023/08/28 10:02:35;;;;;;;5.70;5.30;;;;;;;21.61;78.07;98234.11;226525;1256;22521;-76
2023/08/28 10:07:39;;;;;;;6.30;5.00;;;;;;;21.79;77.47;98233.52;226503;1251;22693;-76
2023/08/28 10:12:44;;;;;;;5.50;4.80;;;;;;;21.89;76.77;98232.15;226356;1266;22541;-75
2023/08/28 10:17:50;;;;;;;6.20;5.40;;;;;;;21.92;76.40;98219.18;226222;1273;22549;-74
2023/08/28 10:22:53;;;;;;;6.00;5.50;;;;;;;21.91;75.60;98212.13;226328;1267;22555;-72
2023/08/28 10:27:58;;;;;;;5.40;4.90;;;;;;;21.81;75.56;98206.58;226392;1272;22541;-77
2023/08/28 10:33:01;;;;;;;4.90;4.50;;;;;;;21.77;75.54;98217.67;226467;1251;22538;-80
2023/08/28 10:38:04;;;;;;;5.30;4.90;;;;;;;21.79;75.73;98217.99;226592;1253;25404;-75
2023/08/28 10:43:07;;;;;;;5.00;4.50;;;;;;;21.80;75.48;98203.04;226547;1269;24311;-75
2023/08/28 10:48:09;;;;;;;4.20;3.90;;;;;;;21.82;74.88;98201.62;226480;1258;22582;-74
2023/08/28 10:53:15;;;;;;;4.30;3.90;;;;;;;21.75;74.83;98198.95;226614;1272;22552;-73
2023/08/28 10:58:17;;;;;;;4.70;4.30;;;;;;;21.80;74.92;98203.30;226519;1261;22552;-73
2023/08/28 11:03:59;;;;;;;5.30;4.90;;;;;;;21.79;74.49;98198.20;226423;1272;22540;-75
2023/08/28 11:09:25;;;;;;;4.50;4.10;;;;;;;21.72;74.33;98195.41;226510;1270;22545;-73
2023/08/28 11:14:32;;;;;;;5.40;3.90;;;;;;;21.84;74.73;98184.24;226459;1273;22506;-74
2023/08/28 11:19:55;;;;;;;4.50;4.10;;;;;;;22.10;74.21;98175.54;226455;1259;22528;-75
2023/08/28 11:24:58;;;;;;;4.50;4.10;;;;;;;22.27;73.81;98167.64;226401;1272;22549;-74
2023/08/28 11:30:05;;;;;;;5.20;4.30;;;;;;;22.33;72.66;98165.93;226449;1269;22542;-75
2023/08/28 11:35:09;;;;;;;4.90;4.30;;;;;;;22.30;72.38;98161.52;226507;1272;22531;-73
2023/08/28 11:40:18;;;;;;;6.10;3.80;;;;;;;22.35;72.24;98153.77;226445;1267;22531;-75
2023/08/28 11:45:21;;;;;;;3.50;3.20;;;;;;;22.33;71.38;98154.73;226574;1272;22545;-74
2023/08/28 11:50:27;;;;;;;3.10;2.70;;;;;;;22.41;71.36;98157.20;226500;1257;22538;-74
2023/08/28 11:55:33;;;;;;;6.40;4.10;;;;;;;22.55;70.79;98154.04;226416;1273;22528;-74
2023/08/28 12:00:37;;;;;;;7.90;5.50;;;;;;;22.60;69.76;98152.10;226497;1268;24471;-74
2023/08/28 12:05:40;;;;;;;6.40;4.40;;;;;;;22.67;68.97;98153.47;226464;1271;22546;-74
2023/08/28 12:10:43;;;;;;;4.00;3.00;;;;;;;22.60;68.16;98146.40;226467;1271;22550;-74
2023/08/28 12:15:45;;;;;;;5.70;4.40;;;;;;;22.62;68.46;98134.70;226422;1273;22545;-74
2023/08/28 12:20:47;;;;;;;5.70;4.90;;;;;;;22.65;68.44;98142.23;226399;1273;22700;-74
2023/08/28 12:25:49;;;;;;;9.30;7.70;;;;;;;22.69;68.79;98141.06;226399;1270;22572;-76
2023/08/28 12:30:54;;;;;;;9.70;8.20;;;;;;;22.73;68.78;98129.59;226521;1264;23989;-76
2023/08/28 12:35:56;;;;;;;5.00;4.50;;;;;;;22.72;68.41;98120.23;226464;1273;22547;-79
2023/08/28 12:40:58;;;;;;;5.30;3.40;;;;;;;22.81;68.08;98116.41;226507;1261;22566;-78
2023/08/28 12:46:00;;;;;;;5.90;5.30;;;;;;;22.91;67.66;98106.63;226486;1251;22538;-78
2023/08/28 12:51:03;;;;;;;11.10;7.10;;;;;;;23.01;67.54;98108.62;226429;1267;22591;-78
2023/08/28 12:56:05;;;;;;;6.00;5.00;;;;;;;23.03;67.54;98100.40;226449;1270;24241;-82
2023/08/28 13:01:07;;;;;;;6.90;5.80;;;;;;;23.01;66.74;98090.41;226482;1267;22644;-80
2023/08/28 13:06:09;;;;;;;7.80;6.00;;;;;;;22.91;66.69;98093.59;226446;1267;26091;-78
2023/08/28 13:11:11;;;;;;;7.80;6.10;;;;;;;22.79;67.19;98094.45;226348;1260;22578;-80
2023/08/28 13:16:15;;;;;;;10.70;7.50;;;;;;;22.72;66.91;98093.31;226303;1250;22550;-80
2023/08/28 13:21:18;;;;;;;6.10;5.30;;;;;;;22.54;67.07;98097.55;226469;1254;22599;-77
2023/08/28 13:26:19;;;;;;;10.50;7.90;;;;;;;22.40;66.98;98102.03;226346;1266;22555;-76
2023/08/28 13:31:21;;;;;;;9.30;7.00;;;;;;;22.25;67.08;98100.20;226544;1260;26160;-80
2023/08/28 13:36:23;;;;;;;11.20;8.20;;;;;;;22.07;66.70;98094.23;226186;1254;189201;-77
2023/08/28 13:41:25;;;;;;;5.40;4.40;;;;;;;21.86;66.86;98087.17;226382;1266;22533;-75
2023/08/28 13:46:27;;;;;;;4.90;4.50;;;;;;;21.63;66.92;98076.02;226451;1267;22751;-81
2023/08/28 13:51:29;;;;;;;4.90;4.30;;;;;;;21.49;67.42;98072.21;226564;1260;22554;-79
2023/08/28 13:56:31;;;;;;;4.70;4.30;;;;;;;21.36;67.89;98080.55;226328;1254;23946;-79
2023/08/28 14:01:33;;;;;;;4.90;4.50;;;;;;;21.27;68.49;98079.81;226167;1254;22549;-74
2023/08/28 14:06:36;;;;;;;5.10;4.60;;;;;;;21.26;68.85;98063.80;226262;1270;22557;-73
2023/08/28 14:11:37;;;;;;;5.20;4.80;;;;;;;21.20;69.12;98062.92;226415;1272;22542;-74
2023/08/28 14:16:39;;;;;;;4.90;4.50;;;;;;;21.18;69.36;98066.52;226505;1261;22551;-74
2023/08/28 14:21:41;;;;;;;4.80;4.50;;;;;;;21.14;69.63;98057.70;226682;1270;22593;-74
2023/08/28 14:26:43;;;;;;;6.80;5.10;;;;;;;21.01;69.97;98055.16;226718;1272;22703;-75
2023/08/28 14:31:45;;;;;;;5.80;5.10;;;;;;;20.89;70.40;98058.30;226708;1272;22540;-75
2023/08/28 14:36:47;;;;;;;6.10;5.50;;;;;;;20.76;70.66;98050.39;226738;1271;22555;-74
2023/08/28 14:41:49;;;;;;;6.30;5.70;;;;;;;20.63;71.00;98050.14;226709;1267;22634;-74
2023/08/28 14:46:51;;;;;;;6.20;5.70;;;;;;;20.53;71.26;98060.81;226667;1270;22539;-74
2023/08/28 14:51:52;;;;;;;6.00;5.60;;;;;;;20.48;71.84;98060.19;226685;1269;22577;-75
2023/08/28 14:56:54;;;;;;;6.10;5.70;;;;;;;20.42;72.05;98051.55;226591;1270;22568;-74
2023/08/28 15:01:56;;;;;;;6.00;5.50;;;;;;;20.33;72.35;98029.99;226767;1266;25376;-74
2023/08/28 15:06:58;;;;;;;6.20;5.60;;;;;;;20.26;72.58;98029.84;226693;1270;23000;-73
2023/08/28 15:12:00;;;;;;;6.00;5.60;;;;;;;20.22;72.85;98013.90;226741;1264;25284;-73
2023/08/28 15:17:02;;;;;;;5.70;5.20;;;;;;;20.23;73.23;98013.74;226855;1272;23091;-73
2023/08/28 15:22:04;;;;;;;6.60;6.00;;;;;;;20.22;73.37;98013.36;226681;1270;22539;-73
2023/08/28 15:27:07;;;;;;;6.50;5.80;;;;;;;20.19;73.51;98015.89;226776;1272;24228;-74
2023/08/28 15:32:09;;;;;;;6.60;6.10;;;;;;;20.14;73.66;98010.42;226814;1272;22544;-74
2023/08/28 15:37:11;;;;;;;7.50;6.80;;;;;;;20.06;73.86;98015.77;226817;1272;22580;-73
2023/08/28 15:42:12;;;;;;;7.70;7.00;;;;;;;20.03;74.28;98023.73;226759;1269;23160;-74
2023/08/28 15:47:14;;;;;;;7.00;6.40;;;;;;;20.00;74.60;98030.76;226813;1256;22582;-75
2023/08/28 15:52:16;;;;;;;7.50;6.30;;;;;;;19.96;74.67;98029.61;226726;1272;22568;-75
2023/08/28 15:57:18;;;;;;;8.20;7.30;;;;;;;19.91;75.08;98028.20;226649;1270;22562;-74
2023/08/28 16:02:20;;;;;;;10.20;8.40;;;;;;;19.86;75.19;98032.45;226757;1270;22545;-74
2023/08/28 16:07:22;;;;;;;11.40;8.90;;;;;;;19.82;75.46;98032.39;226818;1270;22561;-74
2023/08/28 16:12:24;;;;;;;8.60;7.30;;;;;;;19.78;75.54;98030.81;226797;1269;23298;-74
2023/08/28 16:17:26;;;;;;;12.60;7.80;;;;;;;19.72;75.84;98031.04;226790;1272;22547;-74
2023/08/28 16:22:29;;;;;;;8.00;7.10;;;;;;;19.65;76.04;98023.02;226764;1263;22637;-73
2023/08/28 16:27:33;;;;;;;7.00;6.30;;;;;;;19.55;76.40;98024.88;226698;1267;24198;-75
2023/08/28 16:32:35;;;;;;;12.10;8.70;;;;;;;19.45;76.87;98024.65;226574;1272;22558;-74
2023/08/28 16:37:37;;;;;;;8.70;6.20;;;;;;;19.39;77.28;98017.95;226846;1272;22616;-75
2023/08/28 16:42:39;;;;;;;7.70;5.00;;;;;;;19.30;77.92;98015.06;226712;1268;22546;-75
2023/08/28 16:47:41;;;;;;;7.30;5.80;;;;;;;19.09;78.36;98008.67;226725;1269;24818;-74
2023/08/28 16:52:43;;;;;;;6.50;5.50;;;;;;;18.92;79.12;98006.35;226775;1263;23022;-75
2023/08/28 16:57:46;;;;;;;6.20;5.70;;;;;;;18.74;79.84;98017.01;226797;1270;22541;-75
2023/08/28 17:02:49;;;;;;;6.70;6.10;;;;;;;18.53;80.32;98031.25;226661;1272;22549;-74
2023/08/28 17:07:51;;;;;;;6.20;5.70;;;;;;;18.32;81.00;98041.10;226789;1256;22550;-74
2023/08/28 17:12:54;;;;;;;5.20;4.60;;;;;;;18.11;81.26;98033.91;226779;1272;22557;-75
2023/08/28 17:17:56;;;;;;;8.10;5.70;;;;;;;17.83;81.66;98028.98;226608;1270;23001;-74
2023/08/28 17:22:58;;;;;;;8.00;6.10;;;;;;;17.59;82.29;98030.52;226576;1270;26069;-74
2023/08/28 17:28:00;;;;;;;6.10;5.60;;;;;;;17.38;82.87;98038.30;226782;1270;22542;-74
2023/08/28 17:33:02;;;;;;;6.70;5.50;;;;;;;17.18;83.28;98034.70;226871;1272;22534;-75
2023/08/28 17:38:05;;;;;;;6.70;5.70;;;;;;;17.07;83.70;98034.89;226790;1269;22537;-74
2023/08/28 17:43:08;;;;;;;7.10;6.20;;;;;;;17.00;84.25;98034.80;226802;1266;25213;-75
2023/08/28 17:48:10;;;;;;;7.90;6.70;;;;;;;16.94;84.52;98031.83;226881;1272;24228;-74
2023/08/28 17:53:12;;;;;;;8.70;6.40;;;;;;;16.92;84.84;98018.52;226743;1270;23411;-75
2023/08/28 17:58:14;;;;;;;9.60;6.40;;;;;;;16.94;85.14;98013.36;226757;1267;22921;-74
2023/08/28 18:03:16;;;;;;;7.40;6.70;;;;;;;16.91;85.31;98008.96;226762;1269;22555;-74
2023/08/28 18:08:38;;;;;;;5.80;3.60;;;;;;;16.88;85.61;98004.13;226774;1272;22534;-74
2023/08/28 18:13:40;;;;;;;3.90;2.80;;;;;;;16.84;86.01;98001.23;226761;1270;22548;-73
2023/08/28 18:18:46;;;;;;;3.50;2.40;;;;;;;16.81;86.34;97998.23;226790;1261;22530;-73
2023/08/28 18:23:51;;;;;;;8.70;7.30;;;;;;;16.78;86.59;98001.14;226712;1272;22547;-73
2023/08/28 18:28:54;;;;;;;9.30;8.10;;;;;;;16.78;86.62;97986.83;226745;1256;24516;-73
2023/08/28 18:33:59;;;;;;;8.80;7.50;;;;;;;16.78;86.90;97969.38;226769;1257;22690;-74
2023/08/28 18:39:01;;;;;;;8.40;6.80;;;;;;;16.79;87.10;97963.53;226725;1267;22558;-74
2023/08/28 18:44:05;;;;;;;8.50;7.10;;;;;;;16.81;87.18;97958.34;226769;1272;22585;-74
2023/08/28 18:49:07;;;;;;;13.80;8.30;;;;;;;16.84;87.34;97945.90;226731;1272;22536;-73
2023/08/28 18:54:08;;;;;;;9.80;7.70;;;;;;;16.89;87.53;97938.59;226812;1269;24227;-73
2023/08/28 18:59:10;;;;;;;8.30;7.50;;;;;;;16.95;87.53;97924.98;226748;1262;23251;-74
2023/08/28 19:04:12;;;;;;;7.50;6.30;;;;;;;17.00;87.47;97919.23;226866;1251;22819;-74
2023/08/28 19:09:14;;;;;;;11.60;6.80;;;;;;;17.05;87.50;97914.76;226817;1272;22530;-74
2023/08/28 19:14:18;;;;;;;6.60;5.80;;;;;;;17.10;87.38;97907.43;226706;1272;22571;-74
2023/08/28 19:19:20;;;;;;;7.40;6.40;;;;;;;17.15;87.31;97902.80;226779;1272;24208;-74
2023/08/28 19:24:22;;;;;;;7.30;6.10;;;;;;;17.18;87.14;97887.02;226713;1272;22548;-74
2023/08/28 19:29:24;;;;;;;8.30;6.00;;;;;;;17.23;87.23;97892.66;226719;1269;22652;-74
2023/08/28 19:34:26;;;;;;;6.80;5.60;;;;;;;17.30;87.14;97900.11;226779;1266;22550;-74
2023/08/28 19:39:28;;;;;;;7.60;5.60;;;;;;;17.34;87.00;97897.54;226744;1270;24356;-74
2023/08/28 19:44:30;;;;;;;5.40;4.90;;;;;;;17.36;86.72;97887.88;226845;1269;24394;-73
2023/08/28 19:49:32;;;;;;;8.80;5.10;;;;;;;17.39;86.87;97871.13;226767;1269;22570;-74
2023/08/28 19:54:40;;;;;;;6.90;4.80;;;;;;;17.40;86.92;97861.58;226658;1272;22545;-74
2023/08/28 19:59:44;;;;;;;7.00;5.10;;;;;;;17.43;86.93;97855.95;226694;1266;22601;-74
2023/08/28 20:04:46;;;;;;;6.80;4.80;;;;;;;17.45;86.92;97844.02;226769;1272;25204;-74
2023/08/28 20:09:49;;;;;;;5.70;4.70;;;;;;;17.45;86.95;97839.41;226751;1272;23883;-74
2023/08/28 20:14:51;;;;;;;7.80;4.60;;;;;;;17.44;86.97;97826.95;226700;1270;22560;-73
2023/08/28 20:19:54;;;;;;;7.30;5.30;;;;;;;17.40;86.99;97805.81;226831;1272;22974;-74
2023/08/28 20:24:56;;;;;;;5.50;4.70;;;;;;;17.38;87.26;97795.12;226823;1260;23017;-74
2023/08/28 20:29:58;;;;;;;7.10;5.00;;;;;;;17.36;87.47;97781.39;226836;1270;22761;-75
2023/08/28 20:35:00;;;;;;;5.80;4.60;;;;;;;17.33;87.46;97778.60;226793;1272;22520;-73
2023/08/28 20:40:03;;;;;;;7.80;5.30;;;;;;;17.31;87.78;97769.72;226824;1269;24206;-74
2023/08/28 20:45:05;;;;;;;7.50;5.80;;;;;;;17.30;87.96;97766.29;226713;1266;22526;-74
2023/08/28 20:50:10;;;;;;;6.40;5.80;;;;;;;17.27;87.92;97759.80;226598;1269;22540;-74
2023/08/28 20:55:12;;;;;;;9.70;5.90;;;;;;;17.25;88.28;97754.33;226694;1269;22732;-73
2023/08/28 21:00:15;;;;;;;7.80;5.60;;;;;;;17.23;88.55;97753.14;226531;1273;22527;-75
2023/08/28 21:05:21;;;;;;;6.00;5.20;;;;;;;17.22;88.62;97765.25;226596;1272;22566;-73
2023/08/28 21:10:29;;;;;;;6.70;5.80;;;;;;;17.24;88.85;97766.40;226805;1272;22647;-74
2023/08/28 21:15:31;;;;;;;6.70;6.10;;;;;;;17.23;88.84;97771.98;226747;1270;22526;-74
2023/08/28 21:20:33;;;;;;;6.50;5.70;;;;;;;17.20;88.83;97772.94;226752;1266;24297;-73
2023/08/28 21:25:34;;;;;;;10.60;9.20;;;;;;;17.17;89.00;97779.70;226753;1272;22547;-73
2023/08/28 21:30:36;;;;;;;7.00;6.00;;;;;;;17.15;89.15;97789.03;226796;1270;22542;-73
2023/08/28 21:35:38;;;;;;;6.80;6.10;;;;;;;17.15;89.25;97780.38;226846;1270;22480;-73
2023/08/28 21:40:40;;;;;;;6.60;6.00;;;;;;;17.14;89.35;97768.62;226828;1272;22518;-74
2023/08/28 21:45:42;;;;;;;6.70;5.90;;;;;;;17.15;89.71;97761.58;226723;1269;24275;-72
2023/08/28 21:50:44;;;;;;;7.00;6.40;;;;;;;17.14;89.77;97758.38;226801;1272;25359;-74
2023/08/28 21:56:05;;;;;;;6.90;6.30;;;;;;;17.15;89.93;97763.18;226802;1267;25265;-73
2023/08/28 22:01:26;;;;;;;8.00;6.40;;;;;;;17.14;89.98;97768.36;226841;1272;22526;-74
2023/08/28 22:06:47;;;;;;;7.20;6.30;;;;;;;17.14;90.01;97777.11;226847;1270;22600;-73
2023/08/28 22:11:48;;;;;;;7.20;6.50;;;;;;;17.14;90.44;97783.52;226851;1263;25894;-73
2023/08/28 22:17:01;;;;;;;7.90;7.10;;;;;;;17.14;90.53;97781.97;226772;1270;22549;-73
2023/08/28 22:22:03;;;;;;;9.10;8.30;;;;;;;17.15;90.57;97770.13;226826;1272;22645;-74
2023/08/28 22:27:06;;;;;;;10.50;9.40;;;;;;;17.14;90.55;97762.16;226780;1272;22517;-73
2023/08/28 22:32:08;;;;;;;11.20;10.10;;;;;;;17.13;90.64;97741.76;226767;1268;22555;-73
2023/08/28 22:37:10;;;;;;;11.20;10.20;;;;;;;17.10;90.71;97720.65;226772;1272;22538;-73
2023/08/28 22:42:12;;;;;;;11.20;10.20;;;;;;;17.07;90.84;97706.63;226769;1260;23642;-73
2023/08/28 22:47:14;;;;;;;13.10;11.80;;;;;;;17.05;91.09;97704.09;226789;1270;22569;-73
2023/08/28 22:52:15;;;;;;;13.60;12.30;;;;;;;17.04;91.20;97709.14;226673;1273;22529;-73
2023/08/28 22:57:17;;;;;;;12.50;11.30;;;;;;;17.02;91.31;97710.45;226726;1273;22557;-74
2023/08/28 23:02:19;;;;;;;11.50;10.40;;;;;;;17.02;91.40;97704.96;226639;1269;22552;-74
2023/08/28 23:07:22;;;;;;;11.40;10.40;;;;;;;17.03;91.58;97707.95;226609;1269;22533;-73
2023/08/28 23:12:24;;;;;;;11.00;10.10;;;;;;;17.03;91.69;97704.06;226709;1262;24202;-73
2023/08/28 23:17:27;;;;;;;11.50;10.40;;;;;;;17.04;91.72;97712.17;226780;1270;22566;-73
2023/08/28 23:22:29;;;;;;;11.70;10.60;;;;;;;17.05;91.67;97704.34;226710;1272;22530;-73
2023/08/28 23:27:31;;;;;;;12.70;11.50;;;;;;;17.05;91.86;97700.34;226795;1272;22535;-73